createdAt,value
2019-02-27T00:02:36.090Z,7.53
2019-02-27T00:08:15.901Z,7.47
2019-02-27T00:10:44.705Z,7.45
2019-02-27T00:13:13.533Z,7.44
2019-02-27T00:15:42.327Z,7.43
2019-02-27T00:21:10.173Z,7.36
2019-02-27T00:23:36.396Z,7.37
2019-02-27T00:26:08.805Z,7.36
2019-02-27T00:28:35.723Z,7.35
2019-02-27T00:31:04.602Z,7.34
2019-02-27T00:33:33.464Z,7.33
2019-02-27T00:36:02.162Z,7.31
2019-02-27T00:38:31.023Z,7.29
2019-02-27T00:40:59.801Z,7.28
2019-02-27T00:43:29.089Z,7.24
2019-02-27T00:45:58.179Z,7.24
2019-02-27T00:48:26.937Z,7.23
2019-02-27T00:50:55.655Z,7.22
2019-02-27T00:53:25.147Z,7.23
2019-02-27T00:58:26.812Z,7.24
2019-02-27T01:00:54.696Z,7.19
2019-02-27T01:03:25.982Z,7.20
2019-02-27T01:08:48.987Z,7.18
2019-02-27T01:11:18.431Z,7.20
2019-02-27T01:16:17.207Z,7.15
2019-02-27T01:21:19.086Z,7.15
2019-02-27T01:26:15.594Z,7.11
2019-02-27T01:28:45.473Z,7.11
2019-02-27T01:31:14.704Z,7.12
2019-02-27T01:33:43.456Z,7.09
2019-02-27T01:36:12.125Z,7.07
2019-02-27T01:38:40.936Z,7.07
2019-02-27T01:41:09.666Z,7.05
2019-02-27T01:43:40.061Z,7.06
2019-02-27T01:46:08.879Z,7.03
2019-02-27T01:48:42.562Z,7.00
2019-02-27T01:51:08.132Z,6.95
2019-02-27T01:53:37.930Z,6.94
2019-02-27T01:56:07.410Z,6.93
2019-02-27T01:58:36.117Z,6.94
2019-02-27T02:01:44.591Z,6.92
2019-02-27T02:04:13.338Z,6.89
2019-02-27T02:06:42.038Z,6.88
2019-02-27T02:09:52.135Z,6.86
2019-02-27T02:15:28.885Z,6.88
2019-02-27T02:18:36.237Z,6.85
2019-02-27T02:24:42.296Z,6.81
2019-02-27T02:33:42.994Z,6.77
2019-02-27T02:36:50.336Z,6.75
2019-02-27T02:39:57.644Z,6.74
2019-02-27T02:43:06.321Z,6.66
2019-02-27T02:46:13.572Z,6.62
2019-02-27T02:49:22.147Z,6.57
2019-02-27T02:55:20.163Z,6.49
2019-02-27T02:58:28.767Z,6.39
2019-02-27T03:01:37.289Z,6.30
2019-02-27T03:04:47.979Z,6.16
2019-02-27T03:07:53.737Z,6.09
2019-02-27T03:11:02.296Z,5.91
2019-02-27T03:14:17.256Z,5.86
2019-02-27T03:17:20.012Z,5.77
2019-02-27T03:20:27.283Z,5.75
2019-02-27T03:23:35.884Z,5.68
2019-02-27T03:26:43.358Z,5.71
2019-02-27T03:29:53.408Z,5.76
2019-02-27T03:33:02.330Z,5.83
2019-02-27T03:36:09.637Z,5.85
2019-02-27T03:39:17.044Z,5.88
2019-02-27T03:42:24.279Z,5.94
2019-02-27T03:45:31.843Z,5.94
2019-02-27T03:52:00.482Z,5.95
2019-02-27T03:55:06.403Z,5.97
2019-02-27T03:58:13.655Z,5.96
2019-02-27T04:01:22.274Z,5.91
2019-02-27T04:04:30.551Z,5.89
2019-02-27T04:07:38.743Z,5.94
2019-02-27T04:10:07.593Z,5.91
2019-02-27T04:12:36.327Z,5.91
2019-02-27T04:17:54.497Z,5.88
2019-02-27T04:20:23.208Z,5.91
2019-02-27T04:22:53.703Z,5.89
2019-02-27T04:25:22.491Z,5.91
2019-02-27T04:27:55.178Z,5.89
2019-02-27T04:30:21.816Z,5.92
2019-02-27T04:32:50.500Z,5.94
2019-02-27T04:35:19.243Z,5.95
2019-02-27T04:37:47.910Z,5.96
2019-02-27T04:40:16.873Z,5.98
2019-02-27T04:42:45.537Z,5.97
2019-02-27T04:45:14.349Z,5.98
2019-02-27T04:47:43.019Z,5.98
2019-02-27T04:50:11.919Z,5.99
2019-02-27T04:52:40.606Z,5.96
2019-02-27T04:55:09.269Z,5.96
2019-02-27T04:57:37.731Z,5.96
2019-02-27T05:00:46.209Z,5.95
2019-02-27T05:03:14.986Z,5.95
2019-02-27T05:05:43.666Z,5.95
2019-02-27T05:08:12.355Z,5.96
2019-02-27T05:10:41.271Z,5.95
2019-02-27T05:13:10.029Z,5.93
2019-02-27T05:15:39.464Z,5.90
2019-02-27T05:18:08.897Z,5.75
2019-02-27T05:20:37.471Z,5.67
2019-02-27T05:23:06.476Z,5.69
2019-02-27T05:25:35.150Z,5.56
2019-02-27T05:28:03.816Z,5.55
2019-02-27T05:30:32.527Z,5.38
2019-02-27T05:33:02.115Z,5.43
2019-02-27T05:35:31.756Z,5.48
2019-02-27T05:41:08.644Z,5.21
2019-02-27T05:43:56.480Z,5.26
2019-02-27T05:46:25.154Z,5.30
2019-02-27T05:48:53.990Z,5.37
2019-02-27T05:51:22.884Z,5.36
2019-02-27T05:53:51.593Z,5.38
2019-02-27T05:56:20.294Z,5.36
2019-02-27T05:58:48.951Z,5.32
2019-02-27T06:01:17.783Z,5.25
2019-02-27T06:03:49.451Z,5.18
2019-02-27T06:08:53.038Z,5.17
2019-02-27T06:11:21.776Z,5.10
2019-02-27T06:13:50.441Z,5.13
2019-02-27T06:16:19.207Z,5.18
2019-02-27T06:18:47.931Z,5.22
2019-02-27T06:21:16.671Z,5.14
2019-02-27T06:23:45.385Z,5.15
2019-02-27T06:26:14.160Z,5.16
2019-02-27T06:28:43.005Z,5.01
2019-02-27T06:34:00.930Z,4.99
2019-02-27T06:36:29.665Z,4.96
2019-02-27T06:39:00.451Z,5.02
2019-02-27T06:41:28.891Z,5.11
2019-02-27T06:46:55.007Z,5.15
2019-02-27T06:49:23.850Z,5.07
2019-02-27T06:51:52.551Z,5.05
2019-02-27T06:54:21.288Z,4.92
2019-02-27T06:56:49.917Z,4.93
2019-02-27T06:59:18.813Z,4.94
2019-02-27T07:01:48.101Z,4.94
2019-02-27T07:09:47.434Z,5.07
2019-02-27T07:12:16.460Z,5.04
2019-02-27T07:14:45.467Z,5.15
2019-02-27T07:17:14.307Z,5.26
2019-02-27T07:19:42.960Z,5.24
2019-02-27T07:22:12.637Z,5.30
2019-02-27T07:24:42.172Z,5.34
2019-02-27T07:27:10.936Z,5.42
2019-02-27T07:29:39.633Z,5.52
2019-02-27T07:32:08.335Z,5.60
2019-02-27T07:37:26.511Z,5.74
2019-02-27T07:39:55.748Z,5.80
2019-02-27T07:42:24.572Z,5.81
2019-02-27T07:44:53.251Z,5.83
2019-02-27T07:47:22.005Z,5.83
2019-02-27T07:49:50.666Z,5.83
2019-02-27T07:52:19.364Z,5.80
2019-02-27T07:54:48.110Z,5.84
2019-02-27T07:57:16.765Z,5.99
2019-02-27T07:59:45.789Z,6.02
2019-02-27T08:02:14.480Z,6.00
2019-02-27T08:04:43.143Z,6.07
2019-02-27T08:07:12.419Z,6.11
2019-02-27T08:10:04.544Z,6.22
2019-02-27T08:12:32.282Z,6.33
2019-02-27T08:15:01.031Z,6.37
2019-02-27T08:20:21.462Z,6.58
2019-02-27T08:22:50.092Z,6.59
2019-02-27T08:28:15.866Z,6.75
2019-02-27T08:30:44.593Z,6.86
2019-02-27T08:33:15.215Z,6.89
2019-02-27T08:38:19.283Z,7.07
2019-02-27T08:40:48.009Z,7.12
2019-02-27T08:43:16.718Z,7.20
2019-02-27T08:45:45.463Z,7.28
2019-02-27T08:48:16.909Z,7.36
2019-02-27T08:53:13.558Z,7.58
2019-02-27T08:55:42.251Z,7.68
2019-02-27T08:58:11.053Z,7.82
2019-02-27T09:00:39.772Z,7.90
2019-02-27T09:06:09.691Z,8.15
2019-02-27T09:08:43.259Z,8.36
2019-02-27T09:11:08.824Z,8.58
2019-02-27T09:13:37.508Z,8.82
2019-02-27T09:16:06.148Z,9.09
2019-02-27T09:18:36.446Z,9.32
2019-02-27T09:21:05.309Z,9.55
2019-02-27T09:23:34.188Z,9.81
2019-02-27T09:26:03.578Z,10.06
2019-02-27T09:31:04.307Z,10.60
2019-02-27T09:33:38.587Z,10.78
2019-02-27T09:38:38.705Z,11.16
2019-02-27T09:41:12.193Z,11.43
2019-02-27T09:43:37.556Z,11.67
2019-02-27T09:46:06.308Z,11.85
2019-02-27T09:48:35.024Z,11.91
2019-02-27T09:51:03.674Z,11.99
2019-02-27T09:53:33.954Z,12.17
2019-02-27T09:56:02.769Z,12.35
2019-02-27T09:58:31.379Z,12.29
2019-02-27T10:01:20.852Z,12.53
2019-02-27T10:03:52.051Z,12.51
2019-02-27T10:06:19.970Z,12.89
2019-02-27T10:08:48.642Z,13.35
2019-02-27T10:14:04.821Z,14.08
2019-02-27T10:16:34.855Z,14.32
2019-02-27T10:19:03.888Z,14.63
2019-02-27T10:21:32.770Z,14.89
2019-02-27T10:24:04.356Z,14.80
2019-02-27T10:26:31.965Z,14.76
2019-02-27T10:29:00.520Z,14.65
2019-02-27T10:31:29.028Z,14.56
2019-02-27T10:33:57.711Z,14.74
2019-02-27T10:36:26.395Z,15.18
2019-02-27T10:38:55.050Z,15.72
2019-02-27T10:41:23.641Z,15.86
2019-02-27T10:43:54.022Z,16.03
2019-02-27T10:46:23.770Z,16.17
2019-02-27T10:51:28.221Z,16.62
2019-02-27T10:53:56.879Z,16.88
2019-02-27T10:56:25.442Z,16.80
2019-02-27T10:58:54.041Z,16.60
2019-02-27T11:01:22.629Z,16.73
2019-02-27T11:03:51.308Z,17.20
2019-02-27T11:06:19.835Z,17.60
2019-02-27T11:08:48.429Z,18.32
2019-02-27T11:11:17.076Z,18.61
2019-02-27T11:13:45.561Z,18.07
2019-02-27T11:16:15.522Z,17.62
2019-02-27T11:18:44.561Z,18.16
2019-02-27T11:21:13.117Z,18.19
2019-02-27T11:23:41.775Z,18.59
2019-02-27T11:26:10.401Z,19.13
2019-02-27T11:28:38.995Z,19.59
2019-02-27T11:31:47.440Z,20.22
2019-02-27T11:34:16.227Z,20.93
2019-02-27T11:36:46.211Z,20.53
2019-02-27T11:39:15.267Z,20.41
2019-02-27T11:41:46.083Z,20.69
2019-02-27T11:44:14.435Z,20.13
2019-02-27T11:46:44.624Z,20.56
2019-02-27T11:49:13.278Z,20.92
2019-02-27T11:51:41.866Z,21.28
2019-02-27T11:54:10.654Z,20.89
2019-02-27T11:56:39.264Z,21.09
2019-02-27T11:59:10.343Z,21.11
2019-02-27T12:01:38.142Z,21.34
2019-02-27T12:04:06.788Z,22.86
2019-02-27T12:06:35.514Z,23.22
2019-02-27T12:11:58.570Z,23.56
2019-02-27T12:14:27.354Z,23.89
2019-02-27T12:16:55.962Z,23.80
2019-02-27T12:19:24.834Z,22.70
2019-02-27T12:24:42.436Z,22.50
2019-02-27T12:27:24.450Z,22.83
2019-02-27T12:29:41.899Z,22.48
2019-02-27T12:32:10.583Z,23.58
2019-02-27T12:34:39.284Z,24.12
2019-02-27T12:37:16.387Z,24.84
2019-02-27T12:39:38.726Z,24.75
2019-02-27T12:42:07.838Z,24.69
2019-02-27T12:44:37.627Z,23.84
2019-02-27T12:47:06.326Z,22.44
2019-02-27T12:49:34.823Z,21.66
2019-02-27T12:52:03.479Z,20.23
2019-02-27T12:54:32.445Z,19.61
2019-02-27T12:57:01.224Z,19.24
2019-02-27T12:59:30.767Z,19.19
2019-02-27T13:02:08.109Z,18.34
2019-02-27T13:04:30.544Z,18.07
2019-02-27T13:06:59.230Z,17.26
2019-02-27T13:09:47.290Z,17.10
2019-02-27T13:12:17.356Z,16.75
2019-02-27T13:14:46.379Z,16.47
2019-02-27T13:17:15.070Z,16.41
2019-02-27T13:19:43.723Z,16.19
2019-02-27T13:22:12.355Z,16.12
2019-02-27T13:24:40.933Z,16.04
2019-02-27T13:27:09.949Z,16.05
2019-02-27T13:29:39.744Z,15.92
2019-02-27T13:32:08.179Z,15.86
2019-02-27T13:34:37.714Z,15.73
2019-02-27T13:37:06.927Z,15.63
2019-02-27T13:39:36.529Z,15.57
2019-02-27T13:42:45.010Z,15.41
2019-02-27T13:45:53.466Z,15.41
2019-02-27T13:48:22.099Z,15.39
2019-02-27T13:50:50.677Z,15.47
2019-02-27T13:53:25.788Z,15.52
2019-02-27T13:55:49.800Z,15.49
2019-02-27T13:58:18.528Z,15.47
2019-02-27T14:00:47.157Z,15.40
2019-02-27T14:06:47.416Z,15.29
2019-02-27T14:09:15.237Z,15.24
2019-02-27T14:11:43.892Z,15.25
2019-02-27T14:14:15.102Z,15.23
2019-02-27T14:16:43.009Z,15.25
2019-02-27T14:19:11.582Z,15.24
2019-02-27T14:21:40.374Z,15.24
2019-02-27T14:24:08.938Z,15.25
2019-02-27T14:26:38.253Z,15.21
2019-02-27T14:29:08.038Z,15.28
2019-02-27T14:31:36.674Z,15.38
2019-02-27T14:34:06.113Z,15.63
2019-02-27T14:36:34.659Z,15.97
2019-02-27T14:39:03.311Z,16.72
2019-02-27T14:41:32.081Z,17.87
2019-02-27T14:44:00.759Z,19.01
2019-02-27T14:46:29.303Z,19.57
2019-02-27T14:48:58.162Z,19.36
2019-02-27T14:51:26.692Z,19.45
2019-02-27T14:53:55.906Z,19.68
2019-02-27T14:56:25.506Z,19.61
2019-02-27T14:58:56.546Z,19.15
2019-02-27T15:01:24.371Z,19.48
2019-02-27T15:03:52.999Z,19.59
2019-02-27T15:06:21.654Z,18.67
2019-02-27T15:08:57.774Z,17.70
2019-02-27T15:11:20.519Z,16.96
2019-02-27T15:13:49.307Z,16.59
2019-02-27T15:16:17.856Z,16.26
2019-02-27T15:18:46.362Z,15.94
2019-02-27T15:21:14.876Z,15.77
2019-02-27T15:23:43.443Z,15.61
2019-02-27T15:26:13.689Z,15.45
2019-02-27T15:28:42.213Z,15.31
2019-02-27T15:31:10.680Z,15.23
2019-02-27T15:33:39.233Z,15.14
2019-02-27T15:36:08.095Z,15.06
2019-02-27T15:38:36.677Z,15.02
2019-02-27T15:41:05.632Z,14.97
2019-02-27T15:43:35.362Z,14.92
2019-02-27T15:46:03.845Z,14.84
2019-02-27T15:48:32.318Z,14.78
2019-02-27T15:51:00.725Z,14.71
2019-02-27T15:53:29.315Z,14.71
2019-02-27T15:55:57.834Z,14.70
2019-02-27T15:58:28.035Z,14.68
2019-02-27T16:00:56.919Z,14.69
2019-02-27T16:06:20.179Z,14.64
2019-02-27T16:08:49.007Z,14.60
2019-02-27T16:11:18.406Z,14.56
2019-02-27T16:13:47.250Z,14.50
2019-02-27T16:16:15.929Z,14.51
2019-02-27T16:18:44.977Z,14.45
2019-02-27T16:21:13.757Z,14.41
2019-02-27T16:23:42.533Z,14.40
2019-02-27T16:26:11.249Z,14.31
2019-02-27T16:28:39.867Z,14.25
2019-02-27T16:31:08.810Z,14.20
2019-02-27T16:33:37.701Z,14.16
2019-02-27T16:36:06.353Z,14.09
2019-02-27T16:38:34.995Z,14.03
2019-02-27T16:43:52.742Z,13.88
2019-02-27T16:46:22.824Z,13.79
2019-02-27T16:48:51.880Z,13.70
2019-02-27T16:51:20.763Z,13.62
2019-02-27T16:53:52.335Z,13.55
2019-02-27T16:56:19.887Z,13.47
2019-02-27T16:58:48.789Z,13.40
2019-02-27T17:01:18.926Z,13.32
2019-02-27T17:03:52.585Z,13.24
2019-02-27T17:06:18.400Z,13.17
2019-02-27T17:08:47.135Z,13.11
2019-02-27T17:11:15.699Z,13.06
2019-02-27T17:13:46.987Z,13.02
2019-02-27T17:16:15.182Z,12.95
2019-02-27T17:18:43.794Z,12.90
2019-02-27T17:21:12.467Z,12.87
2019-02-27T17:23:43.271Z,12.83
2019-02-27T17:26:11.391Z,12.78
2019-02-27T17:29:22.836Z,12.75
2019-02-27T17:34:20.155Z,12.65
2019-02-27T17:36:49.285Z,12.59
2019-02-27T17:39:18.090Z,12.53
2019-02-27T17:41:46.976Z,12.50
2019-02-27T17:44:15.818Z,12.45
2019-02-27T17:47:03.807Z,12.48
2019-02-27T17:49:32.541Z,12.49
2019-02-27T17:57:25.008Z,12.50
2019-02-27T17:59:52.592Z,12.48
2019-02-27T18:02:21.217Z,12.48
2019-02-27T18:04:53.064Z,12.46
2019-02-27T18:07:20.198Z,12.45
2019-02-27T18:09:48.712Z,12.43
2019-02-27T18:12:17.439Z,12.42
2019-02-27T18:14:46.998Z,12.40
2019-02-27T18:19:52.218Z,12.38
2019-02-27T18:22:20.727Z,12.36
2019-02-27T18:24:49.182Z,12.34
2019-02-27T18:27:17.910Z,12.30
2019-02-27T18:29:46.500Z,12.25
2019-02-27T18:32:15.016Z,12.23
2019-02-27T18:34:43.576Z,12.24
2019-02-27T18:37:12.198Z,12.19
2019-02-27T18:39:40.759Z,12.14
2019-02-27T18:42:09.430Z,12.13
2019-02-27T18:44:38.368Z,12.13
2019-02-27T18:47:08.303Z,12.08
2019-02-27T18:49:37.262Z,12.06
2019-02-27T18:52:06.618Z,12.01
2019-02-27T18:54:36.018Z,11.98
2019-02-27T18:57:04.543Z,11.95
2019-02-27T18:59:33.184Z,11.91
2019-02-27T19:02:01.813Z,11.89
2019-02-27T19:04:35.013Z,11.84
2019-02-27T19:07:00.692Z,11.80
2019-02-27T19:09:32.143Z,11.78
2019-02-27T19:11:59.567Z,11.71
2019-02-27T19:14:28.042Z,11.66
2019-02-27T19:16:56.751Z,11.65
2019-02-27T19:19:25.276Z,11.60
2019-02-27T19:24:29.510Z,11.51
2019-02-27T19:26:58.010Z,11.47
2019-02-27T19:29:26.673Z,11.44
2019-02-27T19:31:55.320Z,11.43
2019-02-27T19:34:24.158Z,11.41
2019-02-27T19:36:52.795Z,11.38
2019-02-27T19:39:22.470Z,11.35
2019-02-27T19:41:51.722Z,11.32
2019-02-27T19:44:20.772Z,11.29
2019-02-27T19:46:49.477Z,11.23
2019-02-27T19:49:18.350Z,11.22
2019-02-27T19:51:46.948Z,11.18
2019-02-27T19:54:18.422Z,11.14
2019-02-27T19:56:55.817Z,11.14
2019-02-27T19:59:24.866Z,11.06
2019-02-27T20:01:54.461Z,11.05
2019-02-27T20:04:23.024Z,11.04
2019-02-27T20:06:51.536Z,10.99
2019-02-27T20:09:20.549Z,10.97
2019-02-27T20:11:50.429Z,10.94
2019-02-27T20:14:19.250Z,10.86
2019-02-27T20:16:47.776Z,10.81
2019-02-27T20:19:22.339Z,10.79
2019-02-27T20:21:46.610Z,10.78
2019-02-27T20:24:15.162Z,10.76
2019-02-27T20:26:44.846Z,10.74
2019-02-27T20:32:03.572Z,10.69
2019-02-27T20:34:32.073Z,10.68
2019-02-27T20:37:03.311Z,10.63
2019-02-27T20:39:30.912Z,10.56
2019-02-27T20:47:29.938Z,10.52
2019-02-27T20:49:58.472Z,10.40
2019-02-27T20:52:27.109Z,10.37
2019-02-27T20:54:58.819Z,10.34
2019-02-27T20:57:25.969Z,10.27
2019-02-27T21:00:00.665Z,10.27
2019-02-27T21:02:24.835Z,10.23
2019-02-27T21:04:53.355Z,10.22
2019-02-27T21:07:22.475Z,10.23
2019-02-27T21:09:52.126Z,10.17
2019-02-27T21:12:20.639Z,10.20
2019-02-27T21:14:49.283Z,10.18
2019-02-27T21:17:20.870Z,10.21
2019-02-27T21:19:48.093Z,10.21
2019-02-27T21:22:16.840Z,10.19
2019-02-27T21:24:45.437Z,10.15
2019-02-27T21:27:34.011Z,10.09
2019-02-27T21:30:02.745Z,10.08
2019-02-27T21:32:33.192Z,10.07
2019-02-27T21:35:01.780Z,10.06
2019-02-27T21:37:30.536Z,9.99
2019-02-27T21:40:02.037Z,10.02
2019-02-27T21:42:29.669Z,9.99
2019-02-27T21:45:03.112Z,9.98
2019-02-27T21:47:28.848Z,9.99
2019-02-27T21:49:57.742Z,9.99
2019-02-27T21:52:26.337Z,9.92
2019-02-27T21:54:54.795Z,9.95
2019-02-27T21:57:25.475Z,9.91
2019-02-27T21:59:53.614Z,9.89
2019-02-27T22:02:22.161Z,9.87
2019-02-27T22:04:50.767Z,9.88
2019-02-27T22:07:19.370Z,9.88
2019-02-27T22:09:48.023Z,9.85
2019-02-27T22:12:16.702Z,9.83
2019-02-27T22:14:45.264Z,9.83
2019-02-27T22:17:13.897Z,9.81
2019-02-27T22:20:01.958Z,9.78
2019-02-27T22:22:30.537Z,9.76
2019-02-27T22:24:59.141Z,9.78
2019-02-27T22:27:27.788Z,9.73
2019-02-27T22:33:23.950Z,9.70
2019-02-27T22:35:52.543Z,9.68
2019-02-27T22:38:25.567Z,9.66
2019-02-27T22:40:51.871Z,9.65
2019-02-27T22:43:21.989Z,9.60
2019-02-27T22:45:50.858Z,9.51
2019-02-27T22:48:19.534Z,9.53
2019-02-27T22:50:48.271Z,9.54
2019-02-27T22:53:16.907Z,9.52
2019-02-27T22:55:45.636Z,9.53
2019-02-27T22:58:14.296Z,9.47
2019-02-27T23:01:22.751Z,9.47
2019-02-27T23:04:31.289Z,9.46
2019-02-27T23:06:59.961Z,9.33
2019-02-27T23:10:08.930Z,9.37
2019-02-27T23:12:39.494Z,9.38
2019-02-27T23:15:47.560Z,9.35
2019-02-27T23:18:56.057Z,9.32
2019-02-27T23:21:26.617Z,9.33
2019-02-27T23:23:55.039Z,9.32
2019-02-27T23:26:23.576Z,9.33
2019-02-27T23:28:52.166Z,9.34
2019-02-27T23:31:23.428Z,9.31
2019-02-27T23:33:51.433Z,9.32
2019-02-27T23:36:22.075Z,9.33
2019-02-27T23:38:50.547Z,9.32
2019-02-27T23:41:22.568Z,9.28
2019-02-27T23:43:49.368Z,9.27
2019-02-27T23:46:18.594Z,9.26
2019-02-27T23:48:48.508Z,9.27
2019-02-27T23:51:17.168Z,9.30
2019-02-27T23:53:45.824Z,9.21
2019-02-27T23:56:19.344Z,9.20
2019-02-27T23:58:44.998Z,9.15
